createdAt,value
2022-07-26T00:01:59.957Z,17.90
2022-07-26T00:04:29.301Z,17.80
2022-07-26T00:06:57.576Z,17.80
2022-07-26T00:09:25.506Z,17.80
2022-07-26T00:11:53.546Z,17.80
2022-07-26T00:14:21.505Z,17.70
2022-07-26T00:16:49.500Z,17.70
2022-07-26T00:19:35.108Z,17.70
2022-07-26T00:22:22.099Z,17.70
2022-07-26T00:25:07.588Z,17.70
2022-07-26T00:27:53.475Z,17.80
2022-07-26T00:30:21.690Z,17.80
2022-07-26T00:32:49.598Z,17.80
2022-07-26T00:35:17.602Z,17.80
2022-07-26T00:37:47.670Z,17.80
2022-07-26T00:40:16.639Z,17.90
2022-07-26T00:42:44.685Z,18.00
2022-07-26T00:45:13.755Z,18.00
2022-07-26T00:47:41.686Z,18.10
2022-07-26T00:50:12.560Z,18.10
2022-07-26T00:52:42.416Z,18.10
2022-07-26T00:55:12.328Z,17.90
2022-07-26T00:57:40.666Z,17.70
2022-07-26T01:00:11.897Z,17.60
2022-07-26T01:02:40.441Z,17.40
2022-07-26T01:05:09.303Z,17.40
2022-07-26T01:07:38.400Z,17.40
2022-07-26T01:10:08.823Z,17.40
2022-07-26T01:12:38.037Z,17.40
2022-07-26T01:15:06.842Z,17.40
2022-07-26T01:17:36.332Z,17.40
2022-07-26T01:20:07.534Z,17.30
2022-07-26T01:22:36.853Z,17.20
2022-07-26T01:25:05.548Z,17.20
2022-07-26T01:27:34.457Z,17.20
2022-07-26T01:30:02.462Z,17.20
2022-07-26T01:32:30.391Z,17.20
2022-07-26T01:34:58.298Z,17.20
2022-07-26T01:37:26.182Z,17.20
2022-07-26T01:39:55.433Z,17.10
2022-07-26T01:42:23.316Z,17.10
2022-07-26T01:44:51.229Z,17.10
2022-07-26T01:47:19.149Z,17.10
2022-07-26T01:49:47.053Z,17.00
2022-07-26T01:52:14.954Z,16.90
2022-07-26T01:54:42.915Z,16.90
2022-07-26T01:57:12.316Z,16.80
2022-07-26T01:59:40.189Z,16.60
2022-07-26T02:02:08.253Z,16.50
2022-07-26T02:04:53.631Z,16.40
2022-07-26T02:07:21.617Z,16.40
2022-07-26T02:09:49.551Z,16.40
2022-07-26T02:12:18.759Z,16.40
2022-07-26T02:14:46.748Z,16.50
2022-07-26T02:17:14.686Z,16.50
2022-07-26T02:19:42.677Z,16.50
2022-07-26T02:22:10.805Z,16.50
2022-07-26T02:24:38.665Z,16.50
2022-07-26T02:27:07.070Z,16.40
2022-07-26T02:29:36.403Z,16.20
2022-07-26T02:32:04.975Z,16.30
2022-07-26T02:34:34.071Z,16.20
2022-07-26T02:37:02.623Z,16.20
2022-07-26T02:39:30.863Z,16.10
2022-07-26T02:42:00.824Z,16.10
2022-07-26T02:44:29.497Z,16.10
2022-07-26T02:46:58.829Z,16.00
2022-07-26T02:49:26.748Z,15.90
2022-07-26T02:51:54.658Z,15.80
2022-07-26T02:54:22.673Z,15.60
2022-07-26T02:56:50.593Z,15.40
2022-07-26T02:59:18.461Z,15.40
2022-07-26T03:01:46.390Z,15.30
2022-07-26T03:04:15.642Z,15.30
2022-07-26T03:06:43.656Z,15.30
2022-07-26T03:09:11.564Z,15.40
2022-07-26T03:11:39.570Z,15.40
2022-07-26T03:14:08.845Z,15.50
2022-07-26T03:16:37.109Z,15.60
2022-07-26T03:19:05.033Z,15.60
2022-07-26T03:21:34.251Z,15.40
2022-07-26T03:24:02.131Z,15.30
2022-07-26T03:26:30.034Z,15.30
2022-07-26T03:28:57.896Z,15.40
2022-07-26T03:31:26.051Z,15.50
2022-07-26T03:33:54.008Z,15.60
2022-07-26T03:36:21.984Z,15.60
2022-07-26T03:38:51.262Z,15.50
2022-07-26T03:41:19.171Z,15.50
2022-07-26T03:43:47.033Z,15.40
2022-07-26T03:46:14.964Z,15.20
2022-07-26T03:48:42.962Z,15.20
2022-07-26T03:51:10.966Z,15.20
2022-07-26T03:53:38.968Z,15.10
2022-07-26T03:56:25.976Z,15.00
2022-07-26T03:58:53.973Z,15.00
2022-07-26T04:01:22.071Z,15.00
2022-07-26T04:03:50.035Z,15.00
2022-07-26T04:06:18.434Z,15.10
2022-07-26T04:08:51.239Z,15.20
2022-07-26T04:11:20.536Z,15.20
2022-07-26T04:13:48.500Z,15.10
2022-07-26T04:16:16.507Z,15.20
2022-07-26T04:18:44.426Z,15.30
2022-07-26T04:21:12.354Z,15.40
2022-07-26T04:23:40.279Z,15.50
2022-07-26T04:26:08.233Z,15.50
2022-07-26T04:28:37.651Z,15.50
2022-07-26T04:31:05.706Z,15.40
2022-07-26T04:33:34.088Z,15.10
2022-07-26T04:36:02.116Z,15.00
2022-07-26T04:38:30.038Z,15.20
2022-07-26T04:40:58.223Z,15.30
2022-07-26T04:43:26.800Z,15.30
2022-07-26T04:45:57.447Z,15.30
2022-07-26T04:48:25.645Z,15.20
2022-07-26T04:50:53.833Z,15.20
2022-07-26T04:53:21.848Z,15.10
2022-07-26T04:55:49.752Z,15.20
2022-07-26T04:58:19.252Z,15.50
2022-07-26T05:01:09.096Z,15.90
2022-07-26T05:03:37.317Z,16.30
2022-07-26T05:06:05.541Z,16.80
2022-07-26T05:08:33.565Z,17.10
2022-07-26T05:11:01.558Z,17.30
2022-07-26T05:13:31.979Z,17.70
2022-07-26T05:16:00.478Z,18.10
2022-07-26T05:18:31.698Z,18.40
2022-07-26T05:21:13.799Z,18.70
2022-07-26T05:23:41.723Z,19.00
2022-07-26T05:26:09.607Z,19.40
2022-07-26T05:28:39.917Z,19.70
2022-07-26T05:31:08.315Z,19.80
2022-07-26T05:33:36.670Z,20.10
2022-07-26T05:36:05.078Z,20.30
2022-07-26T05:38:34.741Z,20.60
2022-07-26T05:41:02.754Z,20.70
2022-07-26T05:43:40.790Z,21.00
2022-07-26T05:46:10.403Z,21.00
2022-07-26T05:48:38.642Z,21.20
2022-07-26T05:51:06.606Z,21.40
2022-07-26T05:53:36.546Z,21.70
2022-07-26T05:56:04.740Z,22.00
2022-07-26T05:58:32.668Z,22.40
2022-07-26T06:01:00.810Z,22.70
2022-07-26T06:03:30.066Z,23.10
2022-07-26T06:05:59.701Z,23.40
2022-07-26T06:08:28.589Z,23.60
2022-07-26T06:10:58.605Z,23.80
2022-07-26T06:13:26.664Z,24.00
2022-07-26T06:15:54.672Z,24.00
2022-07-26T06:18:22.937Z,24.10
2022-07-26T06:20:50.983Z,24.30
2022-07-26T06:23:33.910Z,24.40
2022-07-26T06:26:05.108Z,24.40
2022-07-26T06:28:33.163Z,24.60
2022-07-26T06:31:01.082Z,24.80
2022-07-26T06:33:29.007Z,25.00
2022-07-26T06:35:56.980Z,25.00
2022-07-26T06:38:24.878Z,25.00
2022-07-26T06:40:52.802Z,24.90
2022-07-26T06:43:22.338Z,25.00
2022-07-26T06:45:50.578Z,25.10
2022-07-26T06:48:18.584Z,25.10
2022-07-26T06:50:46.603Z,25.20
2022-07-26T06:53:14.555Z,25.00
2022-07-26T06:55:42.766Z,25.30
2022-07-26T06:58:11.089Z,25.60
2022-07-26T07:00:40.409Z,25.70
2022-07-26T07:03:08.331Z,25.70
2022-07-26T07:05:36.332Z,25.60
2022-07-26T07:08:04.904Z,25.80
2022-07-26T07:10:35.254Z,25.80
2022-07-26T07:13:04.010Z,26.20
2022-07-26T07:15:31.895Z,26.40
2022-07-26T07:18:01.123Z,26.70
2022-07-26T07:20:29.462Z,26.90
2022-07-26T07:22:57.334Z,26.90
2022-07-26T07:25:30.846Z,27.10
2022-07-26T07:27:59.336Z,27.10
2022-07-26T07:30:28.028Z,27.10
2022-07-26T07:32:56.676Z,27.20
2022-07-26T07:35:32.150Z,27.10
2022-07-26T07:38:01.111Z,27.40
2022-07-26T07:40:30.235Z,27.00
2022-07-26T07:42:58.597Z,27.20
2022-07-26T07:45:26.558Z,27.30
2022-07-26T07:47:54.921Z,27.40
2022-07-26T07:50:22.813Z,27.30
2022-07-26T07:52:59.075Z,27.70
2022-07-26T07:55:44.109Z,27.70
2022-07-26T07:58:14.600Z,27.80
2022-07-26T08:00:42.968Z,27.80
2022-07-26T08:03:11.009Z,27.90
2022-07-26T08:05:40.653Z,27.80
2022-07-26T08:08:10.077Z,28.10
2022-07-26T08:10:41.721Z,28.00
2022-07-26T08:13:17.044Z,27.80
2022-07-26T08:15:49.426Z,27.80
2022-07-26T08:18:17.515Z,27.90
2022-07-26T08:20:48.065Z,28.00
2022-07-26T08:23:17.845Z,27.70
2022-07-26T08:25:55.576Z,27.50
2022-07-26T08:28:46.252Z,27.10
2022-07-26T08:31:13.411Z,27.30
2022-07-26T08:33:46.197Z,27.40
2022-07-26T08:36:15.472Z,27.50
2022-07-26T08:38:45.008Z,27.80
2022-07-26T08:41:15.832Z,28.00
2022-07-26T08:43:51.614Z,28.30
2022-07-26T08:46:25.418Z,28.50
2022-07-26T08:48:54.901Z,28.60
2022-07-26T08:51:24.644Z,28.60
2022-07-26T08:54:02.352Z,28.50
2022-07-26T08:56:34.405Z,27.90
2022-07-26T08:59:05.707Z,27.10
2022-07-26T09:01:33.920Z,26.90
2022-07-26T09:04:41.443Z,26.70
2022-07-26T09:07:10.186Z,27.00
2022-07-26T09:09:41.454Z,26.60
2022-07-26T09:12:17.814Z,26.20
2022-07-26T09:14:47.429Z,26.40
2022-07-26T09:17:16.493Z,26.90
2022-07-26T09:19:44.386Z,27.50
2022-07-26T09:22:14.667Z,28.00
2022-07-26T09:24:45.701Z,28.40
2022-07-26T09:27:15.612Z,28.40
2022-07-26T09:29:45.314Z,28.60
2022-07-26T09:32:18.021Z,28.60
2022-07-26T09:34:52.706Z,28.50
2022-07-26T09:37:34.133Z,28.60
2022-07-26T09:40:05.883Z,28.80
2022-07-26T09:42:33.814Z,29.10
2022-07-26T09:45:01.889Z,28.90
2022-07-26T09:47:40.052Z,28.60
2022-07-26T09:50:14.106Z,28.30
2022-07-26T09:52:42.147Z,27.60
2022-07-26T09:55:13.265Z,26.90
2022-07-26T09:57:41.164Z,26.30
2022-07-26T10:00:10.344Z,25.90
2022-07-26T10:02:38.318Z,25.60
2022-07-26T10:05:07.629Z,25.90
2022-07-26T10:07:36.059Z,26.60
2022-07-26T10:10:11.322Z,27.40
2022-07-26T10:12:44.088Z,28.40
2022-07-26T10:15:37.267Z,29.20
2022-07-26T10:18:06.240Z,29.50
2022-07-26T10:20:52.207Z,29.50
2022-07-26T10:23:43.261Z,29.80
2022-07-26T10:26:14.089Z,29.60
2022-07-26T10:28:43.421Z,28.40
2022-07-26T10:31:30.594Z,27.50
2022-07-26T10:34:00.443Z,27.00
2022-07-26T10:36:31.307Z,26.70
2022-07-26T10:39:01.854Z,26.70
2022-07-26T10:41:34.108Z,27.30
2022-07-26T10:44:14.309Z,27.80
2022-07-26T10:46:56.856Z,28.50
2022-07-26T10:49:30.906Z,28.90
2022-07-26T10:52:13.659Z,28.70
2022-07-26T10:55:09.343Z,28.10
2022-07-26T10:57:39.000Z,28.20
2022-07-26T11:00:16.012Z,28.60
2022-07-26T11:02:44.759Z,29.00
2022-07-26T11:05:14.990Z,29.80
2022-07-26T11:07:52.169Z,30.40
2022-07-26T11:10:33.768Z,30.30
2022-07-26T11:13:09.466Z,30.80
2022-07-26T11:15:41.653Z,30.50
2022-07-26T11:18:21.305Z,29.80
2022-07-26T11:20:51.400Z,28.80
2022-07-26T11:23:30.700Z,28.90
2022-07-26T11:26:18.027Z,29.00
2022-07-26T11:28:55.271Z,29.90
2022-07-26T11:31:50.652Z,30.50
2022-07-26T11:34:19.381Z,30.70
2022-07-26T11:36:48.380Z,30.30
2022-07-26T11:39:21.319Z,29.70
2022-07-26T11:41:49.771Z,29.70
2022-07-26T11:44:19.646Z,30.00
2022-07-26T11:46:50.565Z,30.40
2022-07-26T11:49:19.751Z,30.80
2022-07-26T11:51:54.882Z,30.60
2022-07-26T11:54:23.805Z,31.10
2022-07-26T11:56:53.384Z,31.00
2022-07-26T11:59:21.890Z,30.50
2022-07-26T12:01:52.729Z,30.00
2022-07-26T12:04:23.023Z,29.80
2022-07-26T12:06:51.347Z,29.50
2022-07-26T12:09:33.755Z,28.90
2022-07-26T12:12:02.868Z,28.50
2022-07-26T12:14:32.339Z,27.90
2022-07-26T12:17:12.600Z,27.50
2022-07-26T12:19:41.301Z,27.10
2022-07-26T12:22:12.124Z,26.90
2022-07-26T12:24:43.772Z,26.80
2022-07-26T12:27:14.203Z,27.00
2022-07-26T12:29:43.639Z,27.10
2022-07-26T12:32:15.120Z,27.20
2022-07-26T12:34:55.031Z,27.00
2022-07-26T12:37:27.068Z,26.60
2022-07-26T12:40:06.828Z,26.60
2022-07-26T12:42:36.767Z,26.50
2022-07-26T12:45:06.546Z,26.40
2022-07-26T12:47:36.284Z,26.70
2022-07-26T12:50:04.612Z,26.70
2022-07-26T12:52:33.722Z,26.90
2022-07-26T12:55:03.026Z,27.10
2022-07-26T12:57:30.888Z,27.30
2022-07-26T12:59:59.075Z,27.60
2022-07-26T13:02:27.398Z,27.70
2022-07-26T13:05:00.190Z,27.30
2022-07-26T13:07:28.806Z,27.20
2022-07-26T13:10:22.591Z,27.20
2022-07-26T13:12:45.023Z,27.50
2022-07-26T13:15:13.061Z,27.60
2022-07-26T13:17:41.661Z,27.80
2022-07-26T13:20:11.592Z,28.50
2022-07-26T13:22:41.299Z,28.90
2022-07-26T13:25:10.506Z,29.30
2022-07-26T13:27:44.247Z,29.70
2022-07-26T13:30:13.816Z,29.80
2022-07-26T13:32:41.714Z,30.10
2022-07-26T13:35:11.415Z,29.80
2022-07-26T13:37:39.518Z,29.30
2022-07-26T13:40:08.676Z,28.70
2022-07-26T13:42:38.409Z,28.20
2022-07-26T13:45:07.467Z,27.90
2022-07-26T13:47:35.344Z,27.50
2022-07-26T13:50:03.418Z,27.30
2022-07-26T13:52:32.647Z,27.10
2022-07-26T13:55:00.535Z,27.10
2022-07-26T13:57:47.122Z,27.00
2022-07-26T14:00:16.908Z,26.90
2022-07-26T14:02:44.902Z,26.80
2022-07-26T14:05:12.849Z,26.70
2022-07-26T14:07:43.303Z,26.60
2022-07-26T14:10:11.563Z,26.60
2022-07-26T14:12:40.726Z,26.60
2022-07-26T14:15:14.082Z,26.80
2022-07-26T14:17:45.513Z,26.90
2022-07-26T14:20:13.786Z,26.80
2022-07-26T14:22:43.034Z,27.10
2022-07-26T14:25:11.403Z,27.20
2022-07-26T14:27:39.272Z,27.30
2022-07-26T14:30:08.173Z,27.50
2022-07-26T14:32:36.223Z,27.50
2022-07-26T14:35:04.202Z,27.30
2022-07-26T14:37:43.041Z,27.20
2022-07-26T14:40:15.864Z,27.20
2022-07-26T14:42:43.905Z,27.10
2022-07-26T14:45:12.326Z,26.80
2022-07-26T14:47:40.422Z,26.70
2022-07-26T14:50:09.941Z,26.30
2022-07-26T14:52:39.031Z,26.30
2022-07-26T14:55:07.781Z,26.30
2022-07-26T14:57:39.890Z,26.40
2022-07-26T15:00:09.544Z,26.20
2022-07-26T15:02:40.882Z,26.20
2022-07-26T15:05:09.685Z,26.10
2022-07-26T15:07:37.595Z,26.20
2022-07-26T15:10:14.074Z,26.20
2022-07-26T15:12:44.530Z,26.30
2022-07-26T15:15:12.713Z,26.30
2022-07-26T15:17:40.592Z,26.20
2022-07-26T15:20:09.530Z,26.20
2022-07-26T15:22:37.453Z,26.40
2022-07-26T15:25:06.060Z,26.20
2022-07-26T15:27:34.014Z,26.10
2022-07-26T15:30:06.129Z,26.00
2022-07-26T15:32:37.484Z,25.80
2022-07-26T15:35:07.343Z,25.70
2022-07-26T15:37:43.655Z,25.80
2022-07-26T15:40:12.886Z,25.80
2022-07-26T15:42:43.453Z,25.80
2022-07-26T15:45:14.083Z,25.80
2022-07-26T15:48:10.997Z,25.70
2022-07-26T15:50:30.700Z,25.70
2022-07-26T15:52:58.615Z,25.70
2022-07-26T15:55:26.515Z,25.60
2022-07-26T15:57:54.600Z,25.50
2022-07-26T16:00:28.430Z,25.50
2022-07-26T16:02:56.283Z,25.40
2022-07-26T16:05:24.194Z,25.30
2022-07-26T16:07:52.066Z,25.10
2022-07-26T16:10:20.293Z,25.10
2022-07-26T16:12:48.246Z,25.20
2022-07-26T16:15:16.161Z,25.20
2022-07-26T16:17:45.346Z,25.20
2022-07-26T16:20:13.362Z,25.30
2022-07-26T16:22:41.988Z,25.30
2022-07-26T16:25:13.081Z,25.20
2022-07-26T16:27:42.013Z,25.00
2022-07-26T16:30:11.182Z,25.00
2022-07-26T16:32:39.056Z,24.90
2022-07-26T16:35:09.825Z,24.90
2022-07-26T16:37:37.779Z,25.00
2022-07-26T16:40:06.887Z,25.00
2022-07-26T16:42:34.950Z,25.20
2022-07-26T16:45:02.910Z,25.30
2022-07-26T16:47:30.859Z,25.40
2022-07-26T16:49:58.755Z,25.40
2022-07-26T16:52:28.039Z,25.30
2022-07-26T16:54:55.909Z,25.20
2022-07-26T16:57:23.817Z,25.10
2022-07-26T16:59:51.716Z,25.00
2022-07-26T17:02:19.891Z,24.90
2022-07-26T17:04:47.891Z,24.90
2022-07-26T17:07:24.933Z,24.90
2022-07-26T17:09:55.743Z,24.90
2022-07-26T17:12:24.380Z,24.90
2022-07-26T17:14:52.575Z,24.80
2022-07-26T17:17:20.728Z,24.80
2022-07-26T17:19:48.765Z,24.80
2022-07-26T17:22:17.025Z,24.80
2022-07-26T17:24:44.943Z,24.80
2022-07-26T17:27:14.544Z,24.80
2022-07-26T17:29:42.534Z,24.80
2022-07-26T17:32:10.643Z,24.80
2022-07-26T17:34:38.647Z,24.70
2022-07-26T17:37:08.341Z,24.70
2022-07-26T17:39:51.784Z,24.60
2022-07-26T17:42:22.287Z,24.60
2022-07-26T17:44:50.447Z,24.50
2022-07-26T17:47:27.949Z,24.50
2022-07-26T17:50:14.061Z,24.40
2022-07-26T17:52:47.799Z,24.30
2022-07-26T17:55:15.938Z,24.20
2022-07-26T17:57:45.492Z,24.00
2022-07-26T18:00:14.631Z,23.80
2022-07-26T18:02:42.517Z,23.70
2022-07-26T18:05:12.087Z,23.60
2022-07-26T18:07:40.471Z,23.50
2022-07-26T18:10:10.040Z,23.40
2022-07-26T18:12:38.187Z,23.30
2022-07-26T18:15:08.882Z,23.20
2022-07-26T18:17:36.747Z,23.10
2022-07-26T18:20:06.187Z,23.10
2022-07-26T18:22:34.075Z,23.00
2022-07-26T18:25:01.955Z,23.00
2022-07-26T18:27:30.188Z,22.90
2022-07-26T18:29:59.231Z,22.90
2022-07-26T18:32:28.490Z,22.90
2022-07-26T18:34:56.336Z,22.90
2022-07-26T18:37:24.309Z,22.90
2022-07-26T18:39:57.295Z,22.80
2022-07-26T18:42:26.096Z,22.80
2022-07-26T18:44:54.096Z,22.80
2022-07-26T18:47:21.994Z,22.70
2022-07-26T18:49:51.584Z,22.60
2022-07-26T18:52:28.657Z,22.50
2022-07-26T18:55:00.964Z,22.50
2022-07-26T18:57:28.889Z,22.40
2022-07-26T18:59:56.765Z,22.30
2022-07-26T19:02:24.699Z,22.30
2022-07-26T19:04:54.178Z,22.30
2022-07-26T19:07:22.087Z,22.20
2022-07-26T19:09:53.650Z,22.10
2022-07-26T19:12:24.361Z,22.00
2022-07-26T19:14:52.282Z,22.00
2022-07-26T19:17:20.814Z,21.90
2022-07-26T19:19:48.678Z,21.90
2022-07-26T19:22:17.922Z,21.70
2022-07-26T19:24:46.434Z,21.70
2022-07-26T19:27:15.685Z,21.70
2022-07-26T19:29:44.071Z,21.60
2022-07-26T19:32:12.023Z,21.60
2022-07-26T19:34:39.936Z,21.50
2022-07-26T19:37:07.891Z,21.50
2022-07-26T19:39:37.222Z,21.30
2022-07-26T19:42:05.650Z,21.30
2022-07-26T19:44:33.612Z,21.20
2022-07-26T19:47:01.497Z,21.10
2022-07-26T19:49:29.741Z,21.00
2022-07-26T19:51:57.766Z,21.00
2022-07-26T19:54:25.737Z,21.00
2022-07-26T19:56:54.986Z,20.90
2022-07-26T19:59:24.166Z,20.90
2022-07-26T20:01:55.135Z,20.90
2022-07-26T20:04:26.080Z,20.90
2022-07-26T20:06:55.107Z,20.90
2022-07-26T20:09:23.179Z,20.90
2022-07-26T20:11:51.805Z,20.90
2022-07-26T20:14:21.488Z,20.90
2022-07-26T20:16:54.263Z,20.80
2022-07-26T20:19:24.370Z,20.80
2022-07-26T20:21:52.340Z,20.80
2022-07-26T20:24:20.272Z,20.70
2022-07-26T20:26:48.200Z,20.70
2022-07-26T20:29:16.247Z,20.70
2022-07-26T20:31:45.804Z,20.60
2022-07-26T20:34:14.017Z,20.60
2022-07-26T20:36:42.183Z,20.50
2022-07-26T20:39:10.819Z,20.30
2022-07-26T20:41:39.126Z,20.30
2022-07-26T20:44:07.050Z,20.40
2022-07-26T20:46:39.750Z,20.40
2022-07-26T20:49:10.408Z,20.40
2022-07-26T20:51:39.166Z,20.40
2022-07-26T20:54:08.604Z,20.40
2022-07-26T20:56:36.738Z,20.40
2022-07-26T20:59:05.473Z,20.40
2022-07-26T21:01:34.667Z,20.40
2022-07-26T21:04:03.193Z,20.30
2022-07-26T21:06:33.863Z,20.20
2022-07-26T21:09:09.053Z,20.20
2022-07-26T21:11:38.672Z,20.20
2022-07-26T21:14:07.279Z,20.20
2022-07-26T21:16:35.240Z,20.10
2022-07-26T21:19:03.476Z,20.10
2022-07-26T21:21:34.169Z,20.00
2022-07-26T21:24:02.182Z,19.90
2022-07-26T21:26:30.398Z,19.90
2022-07-26T21:28:58.377Z,19.80
2022-07-26T21:31:26.458Z,19.80
2022-07-26T21:33:54.329Z,19.70
2022-07-26T21:36:22.297Z,19.50
2022-07-26T21:38:51.607Z,19.40
2022-07-26T21:41:19.507Z,19.40
2022-07-26T21:43:47.410Z,19.40
2022-07-26T21:46:15.404Z,19.50
2022-07-26T21:48:43.387Z,19.50
2022-07-26T21:51:11.369Z,19.50
2022-07-26T21:53:39.253Z,19.50
2022-07-26T21:56:08.548Z,19.60
2022-07-26T21:58:37.134Z,19.50
2022-07-26T22:01:06.477Z,19.30
2022-07-26T22:03:36.807Z,19.10
2022-07-26T22:06:05.542Z,19.00
2022-07-26T22:08:33.757Z,18.90
2022-07-26T22:11:01.737Z,19.00
2022-07-26T22:13:31.091Z,19.10
2022-07-26T22:15:59.027Z,19.10
2022-07-26T22:18:27.241Z,19.20
2022-07-26T22:20:55.715Z,19.30
2022-07-26T22:23:29.912Z,19.40
2022-07-26T22:25:58.963Z,19.40
2022-07-26T22:28:26.879Z,19.40
2022-07-26T22:30:56.437Z,19.40
2022-07-26T22:33:24.551Z,19.40
2022-07-26T22:35:52.960Z,19.40
2022-07-26T22:38:20.942Z,19.30
2022-07-26T22:40:49.065Z,19.30
2022-07-26T22:43:17.049Z,19.30
2022-07-26T22:45:44.976Z,19.30
2022-07-26T22:48:14.351Z,19.30
2022-07-26T22:50:42.276Z,19.30
2022-07-26T22:53:10.195Z,19.30
2022-07-26T22:55:38.320Z,19.20
2022-07-26T22:58:06.289Z,19.10
2022-07-26T23:00:34.386Z,19.00
2022-07-26T23:03:02.400Z,18.90
2022-07-26T23:05:38.269Z,18.80
2022-07-26T23:08:44.423Z,18.80
2022-07-26T23:11:02.853Z,18.80
2022-07-26T23:13:30.762Z,18.80
2022-07-26T23:16:01.121Z,18.70
2022-07-26T23:18:29.804Z,18.70
2022-07-26T23:20:59.134Z,18.60
2022-07-26T23:23:29.523Z,18.60
2022-07-26T23:25:58.327Z,18.60
2022-07-26T23:28:36.596Z,18.60
2022-07-26T23:31:10.285Z,18.50
2022-07-26T23:33:53.158Z,18.50
2022-07-26T23:36:24.983Z,18.50
2022-07-26T23:38:53.070Z,18.50
2022-07-26T23:41:21.076Z,18.50
2022-07-26T23:43:49.081Z,18.50
2022-07-26T23:46:17.182Z,18.50
2022-07-26T23:48:45.247Z,18.50
2022-07-26T23:51:13.268Z,18.30
2022-07-26T23:53:42.508Z,18.20
2022-07-26T23:56:10.681Z,18.20
2022-07-26T23:58:38.768Z,18.10
